createdAt,value
2022-08-18T00:01:16.504Z,22.60
2022-08-18T00:03:56.026Z,22.60
2022-08-18T00:06:29.567Z,22.50
2022-08-18T00:08:59.854Z,22.60
2022-08-18T00:11:41.374Z,22.50
2022-08-18T00:14:22.407Z,22.50
2022-08-18T00:16:53.465Z,22.50
2022-08-18T00:19:24.755Z,22.50
2022-08-18T00:22:15.402Z,22.40
2022-08-18T00:24:47.605Z,22.50
2022-08-18T00:27:21.619Z,22.50
2022-08-18T00:29:52.635Z,22.50
2022-08-18T00:32:23.580Z,22.50
2022-08-18T00:34:52.046Z,22.40
2022-08-18T00:37:21.321Z,22.40
2022-08-18T00:39:52.317Z,22.40
2022-08-18T00:42:29.027Z,22.40
2022-08-18T00:45:03.131Z,22.40
2022-08-18T00:47:41.385Z,22.50
2022-08-18T00:50:15.952Z,22.60
2022-08-18T00:52:50.982Z,22.50
2022-08-18T00:55:21.359Z,22.60
2022-08-18T00:57:55.897Z,22.60
2022-08-18T01:00:24.407Z,22.60
2022-08-18T01:02:59.727Z,22.40
2022-08-18T01:05:33.955Z,22.30
2022-08-18T01:08:03.021Z,22.30
2022-08-18T01:10:35.346Z,22.30
2022-08-18T01:13:05.860Z,22.40
2022-08-18T01:15:35.514Z,22.60
2022-08-18T01:18:25.822Z,22.60
2022-08-18T01:21:27.422Z,22.60
2022-08-18T01:23:58.419Z,22.50
2022-08-18T01:26:28.676Z,22.60
2022-08-18T01:28:56.868Z,22.70
2022-08-18T01:31:38.138Z,22.60
2022-08-18T01:34:11.017Z,22.60
2022-08-18T01:36:41.775Z,22.40
2022-08-18T01:39:15.056Z,22.30
2022-08-18T01:42:04.770Z,22.20
2022-08-18T01:44:33.733Z,22.30
2022-08-18T01:49:35.472Z,22.30
2022-08-18T01:52:04.615Z,22.30
2022-08-18T01:54:34.728Z,22.40
2022-08-18T01:57:03.571Z,22.40
2022-08-18T01:59:33.119Z,22.30
2022-08-18T02:02:01.760Z,22.30
2022-08-18T02:04:36.946Z,22.30
2022-08-18T02:07:08.623Z,22.40
2022-08-18T02:09:40.178Z,22.40
2022-08-18T02:14:38.650Z,22.10
2022-08-18T02:17:09.734Z,22.10
2022-08-18T02:19:39.838Z,22.00
2022-08-18T02:22:09.636Z,22.00
2022-08-18T02:24:39.965Z,22.00
2022-08-18T02:27:09.882Z,22.10
2022-08-18T02:29:38.289Z,22.20
2022-08-18T02:32:07.351Z,22.10
2022-08-18T02:34:36.194Z,22.00
2022-08-18T02:37:04.776Z,22.00
2022-08-18T02:39:35.948Z,22.00
2022-08-18T02:44:37.246Z,21.90
2022-08-18T02:47:05.683Z,22.00
2022-08-18T02:49:34.052Z,21.90
2022-08-18T02:52:02.181Z,21.80
2022-08-18T02:54:30.485Z,21.80
2022-08-18T02:56:58.816Z,21.80
2022-08-18T02:59:31.836Z,21.80
2022-08-18T03:02:01.775Z,21.70
2022-08-18T03:04:31.590Z,21.80
2022-08-18T03:07:02.690Z,21.90
2022-08-18T03:09:31.654Z,21.80
2022-08-18T03:12:02.287Z,21.70
2022-08-18T03:14:32.049Z,21.70
2022-08-18T03:17:00.545Z,21.60
2022-08-18T03:19:30.455Z,21.60
2022-08-18T03:22:02.919Z,21.70
2022-08-18T03:24:33.310Z,21.70
2022-08-18T03:27:05.877Z,21.80
2022-08-18T03:29:36.405Z,21.80
2022-08-18T03:32:08.591Z,21.80
2022-08-18T03:34:36.856Z,21.90
2022-08-18T03:37:07.485Z,21.90
2022-08-18T03:39:35.823Z,22.00
2022-08-18T03:42:04.193Z,22.00
2022-08-18T03:44:37.013Z,22.00
2022-08-18T03:47:08.752Z,22.00
2022-08-18T03:49:37.870Z,21.80
2022-08-18T03:52:09.711Z,21.80
2022-08-18T03:54:39.195Z,21.80
2022-08-18T03:57:10.572Z,21.70
2022-08-18T03:59:41.466Z,21.70
2022-08-18T04:02:09.614Z,21.60
2022-08-18T04:04:37.895Z,21.60
2022-08-18T04:07:14.328Z,21.60
2022-08-18T04:09:43.200Z,21.70
2022-08-18T04:12:17.417Z,21.80
2022-08-18T04:14:49.642Z,21.60
2022-08-18T04:17:24.319Z,21.50
2022-08-18T04:19:53.094Z,21.50
2022-08-18T04:22:22.764Z,21.50
2022-08-18T04:24:51.440Z,21.50
2022-08-18T04:27:20.222Z,21.40
2022-08-18T04:29:49.791Z,21.40
2022-08-18T04:32:19.865Z,21.40
2022-08-18T04:34:47.995Z,21.50
2022-08-18T04:37:16.452Z,21.50
2022-08-18T04:39:45.658Z,21.60
2022-08-18T04:42:17.041Z,21.50
2022-08-18T04:44:45.477Z,21.60
2022-08-18T04:47:15.106Z,21.60
2022-08-18T04:49:45.847Z,21.70
2022-08-18T04:52:40.240Z,21.70
2022-08-18T04:55:10.290Z,21.70
2022-08-18T04:57:38.440Z,21.60
2022-08-18T05:00:11.221Z,21.60
2022-08-18T05:02:40.931Z,21.40
2022-08-18T05:05:10.188Z,21.30
2022-08-18T05:07:44.870Z,21.40
2022-08-18T05:10:13.510Z,21.30
2022-08-18T05:12:42.408Z,21.30
2022-08-18T05:15:11.133Z,21.30
2022-08-18T05:17:40.778Z,21.30
2022-08-18T05:20:10.478Z,21.30
2022-08-18T05:22:40.914Z,21.30
2022-08-18T05:25:11.547Z,21.40
2022-08-18T05:27:42.856Z,21.20
2022-08-18T05:30:12.750Z,21.20
2022-08-18T05:32:49.126Z,21.20
2022-08-18T05:35:23.842Z,21.30
2022-08-18T05:38:19.246Z,21.20
2022-08-18T05:41:06.786Z,21.20
2022-08-18T05:43:36.346Z,21.30
2022-08-18T05:46:12.090Z,21.40
2022-08-18T05:48:43.683Z,21.40
2022-08-18T05:51:16.661Z,21.40
2022-08-18T05:54:03.304Z,21.40
2022-08-18T05:56:49.896Z,21.50
2022-08-18T05:59:23.745Z,21.50
2022-08-18T06:01:58.832Z,21.40
2022-08-18T06:04:44.710Z,21.40
2022-08-18T06:07:17.044Z,21.40
2022-08-18T06:09:50.508Z,21.40
2022-08-18T06:12:27.084Z,21.40
2022-08-18T06:15:11.381Z,21.50
2022-08-18T06:18:01.182Z,21.60
2022-08-18T06:20:42.306Z,21.80
2022-08-18T06:23:25.287Z,22.00
2022-08-18T06:26:04.613Z,22.00
2022-08-18T06:28:44.134Z,22.10
2022-08-18T06:31:18.783Z,21.80
2022-08-18T06:33:57.313Z,21.50
2022-08-18T06:36:44.724Z,21.50
2022-08-18T06:39:22.241Z,21.50
2022-08-18T06:41:53.634Z,21.50
2022-08-18T06:44:29.253Z,21.50
2022-08-18T06:47:04.677Z,21.50
2022-08-18T06:49:42.889Z,21.50
2022-08-18T06:52:31.542Z,21.60
2022-08-18T06:55:02.272Z,21.80
2022-08-18T06:57:33.389Z,21.80
2022-08-18T07:00:10.007Z,21.90
2022-08-18T07:02:49.793Z,21.90
2022-08-18T07:05:25.306Z,21.90
2022-08-18T07:08:14.512Z,21.80
2022-08-18T07:10:45.635Z,21.80
2022-08-18T07:13:20.475Z,21.80
2022-08-18T07:15:50.488Z,21.80
2022-08-18T07:18:27.910Z,21.70
2022-08-18T07:21:01.431Z,21.70
2022-08-18T07:23:34.885Z,21.50
2022-08-18T07:26:08.640Z,21.40
2022-08-18T07:28:39.840Z,21.40
2022-08-18T07:31:30.824Z,21.50
2022-08-18T07:34:06.091Z,21.50
2022-08-18T07:36:44.025Z,21.50
2022-08-18T07:39:23.608Z,21.40
2022-08-18T07:41:57.438Z,21.40
2022-08-18T07:44:35.678Z,21.40
2022-08-18T07:47:08.234Z,21.40
2022-08-18T07:49:46.067Z,21.40
2022-08-18T07:52:43.709Z,21.40
2022-08-18T07:55:31.760Z,21.50
2022-08-18T07:58:08.646Z,21.50
2022-08-18T08:00:57.999Z,21.60
2022-08-18T08:03:35.236Z,21.60
2022-08-18T08:06:09.881Z,21.60
2022-08-18T08:08:44.479Z,21.60
2022-08-18T08:11:26.759Z,21.60
2022-08-18T08:14:07.372Z,21.50
2022-08-18T08:16:40.964Z,21.70
2022-08-18T08:20:00.102Z,21.60
2022-08-18T08:22:37.310Z,21.80
2022-08-18T08:25:35.203Z,21.80
2022-08-18T08:28:13.238Z,21.80
2022-08-18T08:30:47.815Z,21.80
2022-08-18T08:33:24.433Z,21.90
2022-08-18T08:35:57.616Z,22.00
2022-08-18T08:38:43.045Z,22.20
2022-08-18T08:41:19.835Z,22.20
2022-08-18T08:43:55.868Z,22.10
2022-08-18T08:46:30.027Z,22.20
2022-08-18T08:49:04.257Z,22.30
2022-08-18T08:51:37.747Z,22.50
2022-08-18T08:54:13.266Z,22.70
2022-08-18T08:56:54.475Z,22.80
2022-08-18T08:59:25.756Z,22.80
2022-08-18T09:02:05.522Z,22.90
2022-08-18T09:04:54.103Z,22.80
2022-08-18T09:07:51.509Z,22.60
2022-08-18T09:10:45.500Z,22.70
2022-08-18T09:13:34.943Z,23.00
2022-08-18T09:16:23.972Z,23.20
2022-08-18T09:19:15.881Z,23.30
2022-08-18T09:21:49.760Z,23.40
2022-08-18T09:24:25.808Z,23.30
2022-08-18T09:27:13.824Z,23.20
2022-08-18T09:29:53.895Z,23.00
2022-08-18T09:32:54.274Z,23.10
2022-08-18T09:35:52.025Z,23.10
2022-08-18T09:41:45.604Z,22.40
2022-08-18T09:44:56.108Z,22.50
2022-08-18T09:48:25.542Z,22.50
2022-08-18T09:51:43.947Z,22.50
2022-08-18T09:54:20.871Z,22.60
2022-08-18T09:57:24.517Z,22.40
2022-08-18T10:00:26.475Z,22.40
2022-08-18T10:03:15.517Z,22.40
2022-08-18T10:06:06.188Z,22.50
2022-08-18T10:09:18.046Z,22.50
2022-08-18T10:12:31.896Z,22.40
2022-08-18T10:15:14.414Z,22.50
2022-08-18T10:18:17.467Z,22.60
2022-08-18T10:20:59.403Z,22.70
2022-08-18T10:23:47.942Z,22.90
2022-08-18T10:27:07.791Z,22.90
2022-08-18T10:29:54.498Z,23.00
2022-08-18T10:32:54.208Z,23.00
2022-08-18T10:35:58.987Z,23.00
2022-08-18T10:38:39.477Z,23.10
2022-08-18T10:41:25.490Z,23.20
2022-08-18T10:43:57.697Z,23.40
2022-08-18T10:49:26.277Z,23.40
2022-08-18T10:52:17.099Z,23.40
2022-08-18T10:55:24.193Z,23.30
2022-08-18T10:58:28.003Z,23.40
2022-08-18T11:01:17.960Z,23.60
2022-08-18T11:04:22.687Z,23.60
2022-08-18T11:07:12.661Z,23.70
2022-08-18T11:09:50.687Z,23.60
2022-08-18T11:13:03.068Z,23.80
2022-08-18T11:15:48.702Z,23.80
2022-08-18T11:18:32.831Z,23.80
2022-08-18T11:21:34.364Z,24.00
2022-08-18T11:24:16.223Z,24.00
2022-08-18T11:26:52.852Z,23.80
2022-08-18T11:29:34.190Z,24.00
2022-08-18T11:32:09.309Z,24.30
2022-08-18T11:34:53.035Z,24.50
2022-08-18T11:37:52.329Z,24.50
2022-08-18T11:43:29.842Z,24.90
2022-08-18T11:46:02.093Z,25.50
2022-08-18T11:51:31.307Z,25.40
2022-08-18T11:54:23.570Z,25.40
2022-08-18T11:56:53.559Z,25.40
2022-08-18T11:59:52.734Z,24.60
2022-08-18T12:02:25.317Z,24.70
2022-08-18T12:07:57.021Z,25.40
2022-08-18T12:10:29.608Z,25.50
2022-08-18T12:13:00.355Z,25.70
2022-08-18T12:15:43.801Z,25.80
2022-08-18T12:18:26.298Z,26.00
2022-08-18T12:20:58.554Z,26.40
2022-08-18T12:23:38.646Z,26.60
2022-08-18T12:26:37.968Z,26.20
2022-08-18T12:31:56.822Z,26.40
2022-08-18T12:34:27.324Z,26.10
2022-08-18T12:36:57.910Z,26.10
2022-08-18T12:39:26.646Z,25.70
2022-08-18T12:41:56.719Z,25.90
2022-08-18T12:44:28.103Z,26.00
2022-08-18T12:46:57.309Z,26.60
2022-08-18T12:49:28.339Z,26.80
2022-08-18T12:51:58.580Z,26.80
2022-08-18T12:54:32.851Z,27.10
2022-08-18T12:57:07.016Z,27.30
2022-08-18T12:59:37.727Z,27.30
2022-08-18T13:02:09.703Z,27.10
2022-08-18T13:04:41.925Z,27.00
2022-08-18T13:07:13.614Z,26.80
2022-08-18T13:09:53.176Z,26.70
2022-08-18T13:12:26.182Z,26.60
2022-08-18T13:14:55.903Z,26.40
2022-08-18T13:17:30.361Z,26.30
2022-08-18T13:20:02.269Z,26.20
2022-08-18T13:22:32.893Z,26.10
2022-08-18T13:25:03.919Z,26.30
2022-08-18T13:27:37.323Z,26.10
2022-08-18T13:30:30.081Z,26.50
2022-08-18T13:32:59.432Z,26.50
2022-08-18T13:35:38.185Z,26.40
2022-08-18T13:38:17.414Z,26.40
2022-08-18T13:40:50.233Z,26.40
2022-08-18T13:43:23.375Z,26.80
2022-08-18T13:45:53.374Z,26.80
2022-08-18T13:48:26.886Z,26.90
2022-08-18T13:50:56.795Z,26.80
2022-08-18T13:53:26.306Z,26.50
2022-08-18T13:55:58.496Z,26.80
2022-08-18T13:58:30.340Z,27.00
2022-08-18T14:01:39.554Z,27.10
2022-08-18T14:03:52.244Z,27.00
2022-08-18T14:08:52.933Z,27.00
2022-08-18T14:11:25.855Z,26.40
2022-08-18T14:13:55.774Z,26.60
2022-08-18T14:16:26.593Z,26.20
2022-08-18T14:19:12.892Z,26.30
2022-08-18T14:22:02.513Z,26.50
2022-08-18T14:24:49.467Z,26.80
2022-08-18T14:27:18.372Z,27.00
2022-08-18T14:29:48.947Z,27.40
2022-08-18T14:32:29.454Z,26.90
2022-08-18T14:35:01.007Z,26.70
2022-08-18T14:37:53.694Z,27.00
2022-08-18T14:40:24.703Z,26.70
2022-08-18T14:42:54.413Z,26.40
2022-08-18T14:45:31.418Z,26.30
2022-08-18T14:48:11.052Z,26.10
2022-08-18T14:50:49.001Z,26.30
2022-08-18T14:53:20.257Z,26.00
2022-08-18T14:55:52.240Z,25.90
2022-08-18T14:58:20.786Z,25.80
2022-08-18T15:00:54.196Z,25.60
2022-08-18T15:03:31.544Z,25.70
2022-08-18T15:06:04.815Z,25.70
2022-08-18T15:08:35.428Z,25.70
2022-08-18T15:11:11.633Z,25.80
2022-08-18T15:13:45.330Z,25.90
2022-08-18T15:16:17.763Z,25.90
2022-08-18T15:18:48.623Z,25.80
2022-08-18T15:21:38.930Z,25.40
2022-08-18T15:24:26.895Z,25.80
2022-08-18T15:27:05.977Z,25.50
2022-08-18T15:29:41.608Z,25.40
2022-08-18T15:32:17.630Z,25.60
2022-08-18T15:34:51.059Z,25.40
2022-08-18T15:37:22.185Z,25.10
2022-08-18T15:40:05.827Z,25.00
2022-08-18T15:42:36.817Z,25.20
2022-08-18T15:45:11.938Z,25.30
2022-08-18T15:47:46.607Z,25.20
2022-08-18T15:50:25.222Z,24.90
2022-08-18T15:52:58.974Z,25.00
2022-08-18T15:55:35.724Z,25.00
2022-08-18T15:58:11.050Z,24.90
2022-08-18T16:00:43.807Z,24.90
2022-08-18T16:03:17.619Z,25.00
2022-08-18T16:05:52.511Z,24.80
2022-08-18T16:08:22.423Z,24.70
2022-08-18T16:10:51.024Z,24.80
2022-08-18T16:13:19.994Z,24.80
2022-08-18T16:15:50.244Z,24.80
2022-08-18T16:18:21.341Z,24.80
2022-08-18T16:20:50.615Z,24.90
2022-08-18T16:23:25.090Z,24.90
2022-08-18T16:26:01.222Z,24.80
2022-08-18T16:28:34.718Z,24.90
2022-08-18T16:31:04.157Z,25.00
2022-08-18T16:33:33.889Z,24.90
2022-08-18T16:36:18.032Z,24.90
2022-08-18T16:41:26.106Z,24.80
2022-08-18T16:44:06.207Z,24.80
2022-08-18T16:46:40.917Z,24.70
2022-08-18T16:59:59.837Z,24.60
2022-08-18T17:02:49.171Z,24.70
2022-08-18T17:05:27.810Z,24.80
2022-08-18T17:07:59.665Z,24.70
2022-08-18T17:10:30.222Z,24.90
2022-08-18T17:12:58.682Z,24.90
2022-08-18T17:15:31.204Z,24.80
2022-08-18T17:18:01.297Z,24.80
2022-08-18T17:20:31.430Z,24.90
2022-08-18T17:22:59.825Z,24.80
2022-08-18T17:25:30.865Z,24.50
2022-08-18T17:28:02.147Z,24.50
2022-08-18T17:30:38.428Z,24.60
2022-08-18T17:33:13.322Z,24.70
2022-08-18T17:35:44.603Z,24.60
2022-08-18T17:38:20.214Z,24.60
2022-08-18T17:40:50.311Z,24.60
2022-08-18T17:43:20.576Z,24.50
2022-08-18T17:45:57.212Z,24.40
2022-08-18T17:48:29.982Z,24.30
2022-08-18T17:51:20.942Z,24.30
2022-08-18T17:53:49.511Z,24.30
2022-08-18T17:56:21.507Z,24.30
2022-08-18T17:58:56.527Z,24.30
2022-08-18T18:01:26.984Z,24.40
2022-08-18T18:03:55.282Z,24.40
2022-08-18T18:06:34.332Z,24.30
2022-08-18T18:09:06.111Z,24.30
2022-08-18T18:11:39.004Z,24.30
2022-08-18T18:14:27.697Z,24.30
2022-08-18T18:17:13.883Z,24.30
2022-08-18T18:19:43.150Z,24.30
2022-08-18T18:22:21.208Z,24.30
2022-08-18T18:24:52.743Z,24.20
2022-08-18T18:27:27.588Z,24.10
2022-08-18T18:29:58.146Z,24.10
2022-08-18T18:32:32.058Z,24.10
2022-08-18T18:35:19.147Z,24.10
2022-08-18T18:37:53.019Z,24.00
2022-08-18T18:40:29.294Z,24.00
2022-08-18T18:43:20.709Z,24.00
2022-08-18T18:46:09.842Z,23.80
2022-08-18T18:48:52.241Z,23.80
2022-08-18T18:51:32.721Z,23.90
2022-08-18T18:54:14.949Z,23.90
2022-08-18T18:56:50.490Z,23.80
2022-08-18T18:59:25.650Z,23.80
2022-08-18T19:02:01.816Z,23.70
2022-08-18T19:04:37.410Z,23.80
2022-08-18T19:07:20.884Z,23.80
2022-08-18T19:10:00.221Z,23.80
2022-08-18T19:12:32.044Z,23.80
2022-08-18T19:15:06.050Z,23.80
2022-08-18T19:17:39.437Z,23.80
2022-08-18T19:20:14.065Z,23.60
2022-08-18T19:22:47.428Z,23.60
2022-08-18T19:25:23.203Z,23.60
2022-08-18T19:27:56.725Z,23.60
2022-08-18T19:30:26.671Z,23.60
2022-08-18T19:32:59.411Z,23.60
2022-08-18T19:35:40.049Z,23.50
2022-08-18T19:38:22.953Z,23.50
2022-08-18T19:41:00.593Z,23.50
2022-08-18T19:43:38.856Z,23.50
2022-08-18T19:46:17.641Z,23.40
2022-08-18T19:48:55.467Z,23.40
2022-08-18T19:51:30.651Z,23.40
2022-08-18T19:54:24.893Z,23.40
2022-08-18T19:57:09.539Z,23.40
2022-08-18T20:00:11.742Z,23.40
2022-08-18T20:03:21.366Z,23.40
2022-08-18T20:06:33.535Z,23.40
2022-08-18T20:09:18.853Z,23.30
2022-08-18T20:12:08.840Z,23.30
2022-08-18T20:14:43.084Z,23.20
2022-08-18T20:17:19.162Z,23.20
2022-08-18T20:20:06.003Z,23.20
2022-08-18T20:22:43.174Z,23.20
2022-08-18T20:25:39.885Z,23.20
2022-08-18T20:28:35.468Z,23.20
2022-08-18T20:31:13.127Z,23.20
2022-08-18T20:33:47.332Z,23.20
2022-08-18T20:36:29.030Z,23.20
2022-08-18T20:38:59.371Z,23.10
2022-08-18T20:41:43.371Z,23.10
2022-08-18T20:44:49.167Z,23.00
2022-08-18T20:47:46.901Z,23.00
2022-08-18T20:50:42.152Z,23.00
2022-08-18T20:53:22.586Z,23.10
2022-08-18T20:56:01.224Z,23.20
2022-08-18T20:58:57.370Z,23.10
2022-08-18T21:01:30.671Z,23.10
2022-08-18T21:06:34.783Z,23.10
2022-08-18T21:09:03.552Z,23.10
2022-08-18T21:11:41.820Z,23.20
2022-08-18T21:14:16.336Z,23.30
2022-08-18T21:16:48.146Z,23.30
2022-08-18T21:19:20.741Z,23.40
2022-08-18T21:21:52.271Z,23.40
2022-08-18T21:24:29.452Z,23.30
2022-08-18T21:27:00.364Z,23.30
2022-08-18T21:32:22.808Z,23.50
2022-08-18T21:34:52.768Z,23.50
2022-08-18T21:39:56.231Z,23.40
2022-08-18T21:42:29.549Z,23.30
2022-08-18T21:45:01.026Z,23.20
2022-08-18T21:47:33.668Z,23.30
2022-08-18T21:50:09.579Z,23.20
2022-08-18T21:52:51.888Z,22.90
2022-08-18T21:55:26.674Z,22.80
2022-08-18T21:58:09.093Z,22.70
2022-08-18T22:00:40.084Z,22.60
2022-08-18T22:03:28.708Z,22.50
2022-08-18T22:06:09.935Z,22.50
2022-08-18T22:08:49.968Z,22.50
2022-08-18T22:12:02.739Z,22.40
2022-08-18T22:14:55.085Z,22.40
2022-08-18T22:17:45.295Z,22.40
2022-08-18T22:20:48.306Z,22.30
2022-08-18T22:23:54.961Z,22.40
2022-08-18T22:26:28.502Z,22.30
2022-08-18T22:29:04.851Z,22.40
2022-08-18T22:31:36.244Z,22.40
2022-08-18T22:34:09.683Z,22.20
2022-08-18T22:36:43.132Z,22.20
2022-08-18T22:39:20.838Z,22.00
2022-08-18T22:41:53.079Z,22.10
2022-08-18T22:44:31.576Z,21.90
2022-08-18T22:52:10.770Z,22.20
2022-08-18T22:54:39.979Z,22.20
2022-08-18T22:59:46.937Z,22.30
2022-08-18T23:07:24.017Z,22.60
2022-08-18T23:09:53.890Z,22.50
2022-08-18T23:14:53.551Z,22.70
2022-08-18T23:17:22.987Z,22.80
2022-08-18T23:19:52.160Z,22.70
2022-08-18T23:22:22.114Z,22.60
2022-08-18T23:27:21.757Z,22.60
2022-08-18T23:32:20.271Z,22.50
2022-08-18T23:34:51.341Z,22.50
2022-08-18T23:42:23.171Z,22.20
2022-08-18T23:44:52.715Z,22.20
2022-08-18T23:47:24.249Z,22.30
2022-08-18T23:49:56.543Z,22.40
2022-08-18T23:52:25.139Z,22.40
2022-08-18T23:54:55.254Z,22.40
2022-08-18T23:57:24.024Z,22.40
2022-08-18T23:59:57.988Z,22.30
